Time;durP1;ratioP1;P1;durP2;ratioP2;P2;SDS_P1;SDS_P2;PMS_P1;PMS_P2;Temp;Humidity;BMP_temperature;BMP_pressure;BME280_temperature;BME280_humidity;BME280_pressure;Samples;Min_cycle;Max_cycle;Signal;HPM_P1;HPM_P2
2022/03/08 00:01:14;;;;;;;8.27;6.07;;;9.30;99.90;;;;;;5040920;28;20132;-72
2022/03/08 00:03:41;;;;;;;9.88;6.00;;;9.20;99.90;;;;;;5041454;28;20104;-71
2022/03/08 00:06:07;;;;;;;11.52;6.35;;;9.30;99.90;;;;;;5039116;28;20215;-71
2022/03/08 00:08:34;;;;;;;10.90;6.82;;;9.20;99.90;;;;;;5038081;28;20088;-71
2022/03/08 00:11:02;;;;;;;10.20;6.43;;;9.30;99.90;;;;;;5008517;28;20056;-71
2022/03/08 00:13:29;;;;;;;11.55;6.60;;;9.20;99.90;;;;;;5037766;28;20477;-72
2022/03/08 00:15:55;;;;;;;12.05;6.63;;;9.20;99.90;;;;;;5070803;28;20037;-71
2022/03/08 00:18:21;;;;;;;12.05;6.60;;;9.20;99.90;;;;;;5055994;28;20077;-73
2022/03/08 00:20:47;;;;;;;11.93;6.75;;;9.20;99.90;;;;;;5048773;28;20032;-71
2022/03/08 00:23:13;;;;;;;9.38;6.53;;;9.20;99.90;;;;;;5060036;28;20049;-71
2022/03/08 00:25:39;;;;;;;8.90;6.32;;;9.20;99.90;;;;;;5057902;28;20083;-72
2022/03/08 00:28:06;;;;;;;10.63;6.15;;;9.10;99.90;;;;;;5054347;28;20162;-73
2022/03/08 00:30:32;;;;;;;10.82;6.10;;;9.20;99.90;;;;;;5056720;28;20414;-71
2022/03/08 00:32:58;;;;;;;9.95;6.15;;;9.10;99.90;;;;;;5061899;28;20135;-71
2022/03/08 00:35:26;;;;;;;9.57;6.43;;;9.20;99.90;;;;;;5056793;28;20097;-72
2022/03/08 00:37:53;;;;;;;12.43;6.80;;;9.20;99.90;;;;;;5054030;28;20041;-72
2022/03/08 00:40:21;;;;;;;10.18;6.38;;;9.20;99.90;;;;;;5057123;28;20513;-71
2022/03/08 00:42:47;;;;;;;9.95;6.35;;;9.20;99.90;;;;;;5054129;28;20116;-72
2022/03/08 00:45:15;;;;;;;12.13;6.78;;;9.20;99.90;;;;;;5053606;28;20063;-71
2022/03/08 00:47:41;;;;;;;11.20;6.82;;;9.20;99.90;;;;;;5069065;28;20117;-72
2022/03/08 00:50:20;;;;;;;10.32;6.40;;;9.10;99.90;;;;;;5053763;28;20054;-71
2022/03/08 00:52:46;;;;;;;10.75;6.28;;;9.10;99.90;;;;;;5058683;28;20047;-71
2022/03/08 00:55:15;;;;;;;14.00;6.55;;;9.00;99.90;;;;;;5053973;28;20037;-71
2022/03/08 00:57:42;;;;;;;11.50;6.88;;;8.90;99.90;;;;;;5072159;28;20055;-71
2022/03/08 01:00:10;;;;;;;8.07;5.93;;;9.00;99.90;;;;;;5051883;28;20033;-72
2022/03/08 01:02:38;;;;;;;11.85;6.72;;;9.00;99.90;;;;;;5054526;28;20044;-71
2022/03/08 01:05:05;;;;;;;13.68;6.60;;;9.20;99.90;;;;;;5054538;28;20051;-71
2022/03/08 01:07:31;;;;;;;12.40;6.38;;;9.20;99.90;;;;;;5056046;28;20151;-70
2022/03/08 01:09:57;;;;;;;8.82;6.15;;;9.30;99.90;;;;;;5048250;28;20136;-71
2022/03/08 01:12:24;;;;;;;11.93;5.85;;;9.20;99.90;;;;;;5032753;28;20055;-71
2022/03/08 01:14:51;;;;;;;10.40;6.57;;;9.10;99.90;;;;;;5042315;28;20044;-71
2022/03/08 01:17:21;;;;;;;13.88;5.93;;;9.10;99.90;;;;;;5045240;28;21815;-71
2022/03/08 01:19:47;;;;;;;10.48;6.65;;;9.10;99.90;;;;;;5058489;28;20142;-70
2022/03/08 01:22:13;;;;;;;13.30;6.90;;;9.10;99.90;;;;;;5053751;28;20045;-71
2022/03/08 01:24:39;;;;;;;12.07;6.28;;;9.00;99.90;;;;;;5060011;28;20090;-71
2022/03/08 01:27:06;;;;;;;9.90;6.38;;;8.90;99.90;;;;;;5053529;28;20447;-71
2022/03/08 01:29:33;;;;;;;11.75;7.47;;;8.90;99.90;;;;;;5059091;28;20094;-70
2022/03/08 01:32:00;;;;;;;13.15;7.47;;;8.90;99.90;;;;;;5054250;28;20052;-71
2022/03/08 01:34:26;;;;;;;10.00;6.25;;;9.00;99.90;;;;;;5076104;28;20510;-70
2022/03/08 01:36:52;;;;;;;12.15;6.50;;;9.00;99.90;;;;;;5074314;28;20143;-71
2022/03/08 01:39:18;;;;;;;11.07;6.88;;;9.00;99.90;;;;;;5075771;28;20041;-71
2022/03/08 01:41:43;;;;;;;10.43;6.45;;;8.90;99.90;;;;;;5042367;28;20068;-71
2022/03/08 01:44:10;;;;;;;11.38;6.18;;;8.90;99.90;;;;;;5052070;28;20033;-70
2022/03/08 01:46:36;;;;;;;12.38;6.90;;;9.10;99.90;;;;;;5038554;28;20025;-71
2022/03/08 01:49:04;;;;;;;10.63;6.70;;;9.00;99.90;;;;;;5052250;28;20055;-70
2022/03/08 01:51:30;;;;;;;10.77;7.03;;;9.00;99.90;;;;;;5037350;28;20055;-70
2022/03/08 01:53:57;;;;;;;12.05;6.72;;;9.00;99.90;;;;;;5060062;28;20050;-70
2022/03/08 01:56:23;;;;;;;9.95;6.75;;;8.90;99.90;;;;;;5056958;28;20036;-70
2022/03/08 01:58:49;;;;;;;11.45;6.30;;;8.90;99.90;;;;;;5057643;28;20408;-71
2022/03/08 02:01:16;;;;;;;13.25;7.38;;;8.90;99.90;;;;;;5049785;28;20071;-72
2022/03/08 02:03:42;;;;;;;12.25;6.70;;;8.80;99.90;;;;;;5053505;28;20044;-71
2022/03/08 02:06:08;;;;;;;9.25;6.43;;;8.90;99.90;;;;;;5052011;28;20752;-71
2022/03/08 02:08:35;;;;;;;10.10;6.70;;;8.90;99.90;;;;;;5064022;28;20044;-71
2022/03/08 02:11:01;;;;;;;15.13;7.40;;;8.90;99.90;;;;;;5055318;28;20045;-70
2022/03/08 02:13:27;;;;;;;8.35;6.40;;;8.90;99.90;;;;;;5069556;28;20110;-70
2022/03/08 02:15:55;;;;;;;10.63;7.05;;;8.80;99.90;;;;;;5048762;28;20037;-72
2022/03/08 02:18:22;;;;;;;9.23;6.68;;;8.90;99.90;;;;;;5042159;28;20033;-71
2022/03/08 02:20:48;;;;;;;9.35;6.93;;;8.90;99.90;;;;;;5042438;28;20408;-71
2022/03/08 02:23:14;;;;;;;11.48;7.03;;;8.80;99.90;;;;;;5044912;28;20105;-71
2022/03/08 02:25:41;;;;;;;13.35;6.35;;;8.70;99.90;;;;;;5055917;28;20055;-71
2022/03/08 02:28:08;;;;;;;9.75;6.75;;;8.70;99.90;;;;;;5054883;28;20045;-72
2022/03/08 02:30:34;;;;;;;10.32;6.65;;;8.60;99.90;;;;;;5061882;28;20047;-72
2022/03/08 02:33:01;;;;;;;10.93;7.35;;;8.60;99.90;;;;;;5058402;28;20029;-72
2022/03/08 02:35:30;;;;;;;11.15;6.70;;;8.60;99.90;;;;;;5072618;28;20052;-73
2022/03/08 02:38:02;;;;;;;11.77;6.57;;;8.50;99.90;;;;;;5059428;28;20181;-70
2022/03/08 02:40:31;;;;;;;13.77;6.80;;;8.50;99.90;;;;;;5061080;28;20044;-71
2022/03/08 02:42:57;;;;;;;9.68;6.05;;;8.60;99.90;;;;;;5079216;28;20096;-72
2022/03/08 02:45:24;;;;;;;14.23;6.80;;;8.60;99.90;;;;;;5077082;28;20040;-72
2022/03/08 02:47:50;;;;;;;7.82;5.97;;;8.70;99.90;;;;;;5079498;28;20131;-72
2022/03/08 02:50:19;;;;;;;11.77;5.85;;;8.70;99.90;;;;;;5077402;28;20036;-71
2022/03/08 02:52:48;;;;;;;8.45;5.00;;;8.70;99.90;;;;;;5044875;28;20029;-71
2022/03/08 02:55:14;;;;;;;10.57;6.00;;;8.70;99.90;;;;;;5077860;28;20024;-71
2022/03/08 02:57:41;;;;;;;11.05;5.82;;;8.70;99.90;;;;;;5059476;28;20044;-71
2022/03/08 03:00:10;;;;;;;10.75;5.90;;;8.60;99.90;;;;;;5078118;28;20831;-73
2022/03/08 03:02:36;;;;;;;8.77;5.90;;;8.60;99.90;;;;;;5078751;28;20037;-72
2022/03/08 03:05:02;;;;;;;9.55;5.97;;;8.60;99.90;;;;;;5080449;28;20048;-73
2022/03/08 03:07:28;;;;;;;9.48;6.38;;;8.60;99.90;;;;;;5060606;28;20113;-72
2022/03/08 03:09:54;;;;;;;12.00;6.40;;;8.60;99.90;;;;;;5079459;28;20044;-72
2022/03/08 03:12:20;;;;;;;10.13;6.78;;;8.70;99.90;;;;;;5073491;28;20028;-71
2022/03/08 03:14:46;;;;;;;8.38;5.90;;;8.60;99.90;;;;;;5076537;28;20063;-72
2022/03/08 03:17:12;;;;;;;8.90;5.70;;;8.60;99.90;;;;;;5059158;28;20048;-72
2022/03/08 03:19:39;;;;;;;10.45;5.70;;;8.70;99.90;;;;;;5060898;28;20117;-72
2022/03/08 03:22:05;;;;;;;7.75;5.57;;;8.80;99.90;;;;;;5076327;28;20036;-71
2022/03/08 03:24:31;;;;;;;9.15;6.28;;;8.80;99.90;;;;;;5071054;28;20400;-71
2022/03/08 03:26:58;;;;;;;8.23;5.72;;;8.70;99.90;;;;;;5042776;28;20495;-71
2022/03/08 03:29:23;;;;;;;8.23;5.93;;;8.70;99.90;;;;;;5056056;28;20048;-72
2022/03/08 03:31:50;;;;;;;9.80;6.40;;;8.70;99.90;;;;;;5056283;28;20041;-72
2022/03/08 03:34:15;;;;;;;12.73;6.22;;;8.60;99.90;;;;;;5053075;28;20110;-70
2022/03/08 03:36:41;;;;;;;8.25;6.10;;;8.50;99.90;;;;;;5037309;28;20049;-72
2022/03/08 03:39:07;;;;;;;12.60;6.00;;;8.60;99.90;;;;;;5051133;28;20045;-71
2022/03/08 03:41:34;;;;;;;10.00;6.00;;;8.50;99.90;;;;;;5072341;28;20109;-71
2022/03/08 03:44:00;;;;;;;14.98;6.07;;;8.50;99.90;;;;;;5060508;28;20206;-71
2022/03/08 03:46:27;;;;;;;8.82;5.93;;;8.60;99.90;;;;;;5036233;28;20029;-72
2022/03/08 03:48:54;;;;;;;10.20;5.97;;;8.50;99.90;;;;;;5055660;28;20039;-71
2022/03/08 03:51:20;;;;;;;9.75;6.20;;;8.60;99.90;;;;;;5057906;28;20047;-71
2022/03/08 03:53:46;;;;;;;10.80;5.82;;;8.70;99.90;;;;;;5057000;28;20393;-71
2022/03/08 03:56:12;;;;;;;9.02;5.85;;;8.80;99.90;;;;;;5057919;28;20029;-72
2022/03/08 03:58:39;;;;;;;9.05;5.97;;;8.80;99.90;;;;;;5053117;28;20036;-71
2022/03/08 04:01:05;;;;;;;10.55;6.07;;;8.80;99.90;;;;;;5059123;28;20099;-71
2022/03/08 04:03:31;;;;;;;9.80;5.82;;;8.80;99.90;;;;;;5054754;28;20029;-71
2022/03/08 04:05:57;;;;;;;8.70;5.95;;;8.90;99.90;;;;;;5057604;28;20123;-71
2022/03/08 04:08:23;;;;;;;8.48;6.10;;;9.00;99.90;;;;;;5055920;28;20064;-72
2022/03/08 04:10:50;;;;;;;8.90;5.50;;;9.20;99.90;;;;;;5058533;28;20128;-71
2022/03/08 04:13:17;;;;;;;10.02;5.90;;;9.30;99.90;;;;;;5073724;28;20048;-72
2022/03/08 04:15:45;;;;;;;10.48;5.85;;;9.40;99.90;;;;;;5058891;28;20051;-71
2022/03/08 04:18:12;;;;;;;10.80;6.20;;;9.50;99.90;;;;;;5056440;28;20090;-71
2022/03/08 04:20:39;;;;;;;10.27;5.43;;;9.50;99.90;;;;;;5057163;28;20213;-69
2022/03/08 04:23:05;;;;;;;9.55;5.63;;;9.60;99.90;;;;;;5058321;28;20567;-70
2022/03/08 04:25:32;;;;;;;8.57;6.13;;;9.70;99.90;;;;;;5059237;28;20115;-72
2022/03/08 04:27:58;;;;;;;10.88;5.88;;;9.70;99.90;;;;;;5048828;28;20484;-71
2022/03/08 04:30:24;;;;;;;12.43;6.70;;;9.70;99.90;;;;;;5040237;28;20028;-71
2022/03/08 04:32:50;;;;;;;10.45;5.68;;;9.70;99.90;;;;;;5040193;28;20064;-72
2022/03/08 04:35:17;;;;;;;10.52;7.00;;;9.70;99.90;;;;;;5036540;28;20045;-72
2022/03/08 04:37:43;;;;;;;10.40;6.20;;;9.70;99.90;;;;;;5054454;28;20040;-71
2022/03/08 04:40:11;;;;;;;13.85;6.65;;;9.70;99.90;;;;;;5055086;28;20048;-72
2022/03/08 04:42:38;;;;;;;9.48;6.10;;;9.70;99.90;;;;;;5054259;28;20110;-72
2022/03/08 04:45:05;;;;;;;13.50;6.35;;;9.80;99.90;;;;;;5045080;28;20041;-71
2022/03/08 04:47:34;;;;;;;10.80;6.25;;;9.80;99.90;;;;;;5069963;28;20889;-71
2022/03/08 04:50:00;;;;;;;8.75;5.85;;;9.80;99.90;;;;;;5036443;28;20033;-71
2022/03/08 04:52:26;;;;;;;9.70;6.60;;;9.80;99.90;;;;;;5055980;28;20040;-72
2022/03/08 04:54:52;;;;;;;9.77;6.07;;;9.80;99.90;;;;;;5056997;28;20053;-71
2022/03/08 04:57:18;;;;;;;10.13;6.63;;;9.80;99.90;;;;;;5055371;28;20060;-70
2022/03/08 04:59:44;;;;;;;9.10;6.20;;;9.80;99.90;;;;;;5053498;28;20044;-72
2022/03/08 05:02:10;;;;;;;9.75;6.15;;;9.70;99.90;;;;;;5058268;28;20075;-71
2022/03/08 05:04:36;;;;;;;11.85;6.47;;;9.70;99.90;;;;;;5059279;28;20471;-72
2022/03/08 05:07:03;;;;;;;10.05;6.85;;;9.70;99.90;;;;;;5053609;28;21202;-72
2022/03/08 05:09:30;;;;;;;14.15;6.70;;;9.60;99.90;;;;;;5050552;28;20037;-72
2022/03/08 05:11:56;;;;;;;12.02;6.90;;;9.60;99.90;;;;;;5059039;28;20048;-72
2022/03/08 05:14:22;;;;;;;11.20;6.13;;;9.50;99.90;;;;;;5054227;28;20033;-71
2022/03/08 05:16:49;;;;;;;9.90;5.85;;;9.40;99.90;;;;;;5061057;28;20032;-71
2022/03/08 05:19:15;;;;;;;10.52;6.30;;;9.30;99.90;;;;;;5053170;28;20090;-72
2022/03/08 05:21:41;;;;;;;8.60;5.70;;;9.30;99.90;;;;;;5059391;28;20638;-71
2022/03/08 05:24:07;;;;;;;9.88;6.10;;;9.20;99.90;;;;;;5053950;28;20404;-72
2022/03/08 05:26:32;;;;;;;12.15;6.70;;;9.10;99.90;;;;;;5056967;28;20039;-71
2022/03/08 05:28:58;;;;;;;9.55;5.85;;;9.10;99.90;;;;;;5058901;28;20032;-70
2022/03/08 05:31:24;;;;;;;10.55;6.47;;;9.10;99.90;;;;;;5052723;28;20033;-72
2022/03/08 05:33:50;;;;;;;9.77;5.93;;;9.00;99.90;;;;;;5032960;28;20049;-72
2022/03/08 05:36:16;;;;;;;10.82;6.53;;;9.00;99.90;;;;;;5055504;28;20564;-71
2022/03/08 05:38:42;;;;;;;13.23;6.43;;;9.00;99.90;;;;;;5045593;28;20135;-72
2022/03/08 05:41:09;;;;;;;13.65;6.82;;;9.00;99.90;;;;;;5052678;28;20109;-70
2022/03/08 05:43:34;;;;;;;11.68;6.65;;;8.90;99.90;;;;;;5054277;28;20103;-71
2022/03/08 05:46:01;;;;;;;8.48;6.45;;;8.80;99.90;;;;;;5058980;28;20037;-72
2022/03/08 05:48:28;;;;;;;10.60;7.00;;;8.80;99.90;;;;;;5052448;28;20047;-72
2022/03/08 05:50:55;;;;;;;12.00;6.93;;;8.90;99.90;;;;;;5054250;28;20036;-71
2022/03/08 05:53:21;;;;;;;11.05;6.60;;;8.80;99.90;;;;;;5058421;28;20209;-70
2022/03/08 05:55:47;;;;;;;11.10;6.53;;;8.80;99.90;;;;;;5064289;28;20535;-72
2022/03/08 05:58:13;;;;;;;8.98;5.88;;;8.80;99.90;;;;;;5042589;28;20139;-71
2022/03/08 06:00:39;;;;;;;9.65;6.40;;;8.80;99.90;;;;;;5043494;28;20048;-72
2022/03/08 06:03:05;;;;;;;10.88;6.63;;;8.90;99.90;;;;;;5054402;28;20051;-71
2022/03/08 06:05:31;;;;;;;12.13;7.30;;;9.10;99.90;;;;;;5059670;28;20033;-73
2022/03/08 06:07:57;;;;;;;10.30;6.88;;;9.20;99.90;;;;;;5065177;28;20040;-71
2022/03/08 06:10:24;;;;;;;12.75;7.15;;;9.30;99.90;;;;;;5048204;28;20032;-72
2022/03/08 06:12:50;;;;;;;11.45;7.47;;;9.30;99.90;;;;;;5057640;28;20033;-72
2022/03/08 06:15:16;;;;;;;11.70;7.97;;;9.40;99.90;;;;;;5062804;28;20052;-72
2022/03/08 06:17:42;;;;;;;12.23;7.57;;;9.50;99.90;;;;;;5064056;28;20443;-72
2022/03/08 06:20:09;;;;;;;11.65;7.65;;;9.60;99.90;;;;;;5061100;28;20037;-73
2022/03/08 06:22:35;;;;;;;12.55;7.15;;;9.60;99.90;;;;;;5058989;28;20045;-72
2022/03/08 06:25:02;;;;;;;12.27;7.47;;;9.70;99.90;;;;;;5057184;28;20048;-72
2022/03/08 06:27:29;;;;;;;13.98;6.82;;;9.70;99.90;;;;;;5054961;28;20036;-72
2022/03/08 06:29:54;;;;;;;15.63;7.50;;;9.80;99.90;;;;;;5058553;28;20166;-72
2022/03/08 06:32:20;;;;;;;13.00;7.03;;;9.90;99.90;;;;;;5055945;28;20115;-73
2022/03/08 06:34:46;;;;;;;10.77;6.65;;;9.90;99.90;;;;;;5055744;28;20036;-72
2022/03/08 06:37:13;;;;;;;12.35;7.22;;;10.00;99.90;;;;;;5039906;28;20053;-72
2022/03/08 06:39:39;;;;;;;12.02;6.75;;;10.00;99.90;;;;;;5057071;28;20064;-76
2022/03/08 06:42:05;;;;;;;13.60;7.55;;;10.10;99.90;;;;;;5060831;28;20036;-74
2022/03/08 06:44:32;;;;;;;13.57;7.43;;;10.20;99.90;;;;;;5056651;28;20106;-71
2022/03/08 06:46:59;;;;;;;11.93;7.60;;;10.20;99.90;;;;;;5055422;28;20040;-72
2022/03/08 06:49:25;;;;;;;9.73;7.07;;;10.30;99.90;;;;;;5056698;28;20067;-73
2022/03/08 06:51:51;;;;;;;10.80;6.70;;;10.40;99.90;;;;;;5061417;28;20037;-72
2022/03/08 06:54:17;;;;;;;13.15;7.20;;;10.50;99.90;;;;;;5057525;28;20543;-72
2022/03/08 06:56:43;;;;;;;12.98;7.53;;;10.60;99.90;;;;;;5041694;28;20049;-72
2022/03/08 06:59:09;;;;;;;11.18;7.68;;;10.70;99.90;;;;;;5037193;28;20037;-72
2022/03/08 07:01:36;;;;;;;12.77;7.38;;;10.70;99.90;;;;;;5054532;28;20033;-73
2022/03/08 07:04:02;;;;;;;13.60;8.55;;;10.80;99.90;;;;;;5056799;28;20067;-72
2022/03/08 07:06:29;;;;;;;12.68;8.10;;;10.90;99.90;;;;;;5060147;28;20098;-72
2022/03/08 07:08:55;;;;;;;13.77;8.60;;;11.00;99.90;;;;;;5044538;28;20120;-72
2022/03/08 07:11:21;;;;;;;14.10;7.85;;;11.10;99.90;;;;;;5071565;28;20056;-73
2022/03/08 07:13:48;;;;;;;13.40;7.55;;;11.10;99.90;;;;;;5057421;28;20040;-72
2022/03/08 07:16:14;;;;;;;15.45;7.57;;;11.10;99.90;;;;;;5057660;28;20037;-71
2022/03/08 07:18:40;;;;;;;10.00;7.50;;;11.10;99.90;;;;;;5073116;28;20510;-72
2022/03/08 07:21:08;;;;;;;11.70;7.45;;;11.20;99.90;;;;;;5059945;28;20028;-72
2022/03/08 07:23:35;;;;;;;17.02;7.75;;;11.20;99.90;;;;;;5058394;28;20037;-73
2022/03/08 07:26:01;;;;;;;13.10;8.02;;;11.30;99.90;;;;;;5058250;28;20091;-72
2022/03/08 07:28:27;;;;;;;14.07;7.72;;;11.30;99.90;;;;;;5057231;28;20029;-72
2022/03/08 07:30:53;;;;;;;15.32;8.45;;;11.30;99.90;;;;;;5062556;28;20315;-72
2022/03/08 07:33:19;;;;;;;12.98;7.40;;;11.30;99.90;;;;;;5053038;28;20048;-73
2022/03/08 07:35:45;;;;;;;14.73;7.53;;;11.30;99.90;;;;;;5057219;28;20049;-72
2022/03/08 07:38:13;;;;;;;11.60;7.35;;;11.50;99.90;;;;;;5040740;28;20094;-72
2022/03/08 07:40:39;;;;;;;12.18;7.88;;;11.60;99.90;;;;;;5076872;28;20041;-73
2022/03/08 07:43:05;;;;;;;13.75;7.55;;;11.50;99.90;;;;;;5062168;28;20048;-73
2022/03/08 07:45:33;;;;;;;14.10;8.32;;;11.50;99.90;;;;;;5077302;28;20043;-72
2022/03/08 07:47:58;;;;;;;12.23;8.32;;;11.60;99.90;;;;;;5057851;28;20556;-71
2022/03/08 07:50:25;;;;;;;13.32;8.05;;;11.60;99.90;;;;;;5061341;28;20088;-72
2022/03/08 07:52:52;;;;;;;13.38;8.40;;;11.60;99.90;;;;;;5057228;28;20468;-71
2022/03/08 07:55:18;;;;;;;14.38;7.55;;;11.60;99.90;;;;;;5055637;28;20028;-72
2022/03/08 07:57:44;;;;;;;12.65;8.15;;;11.70;99.90;;;;;;5056269;28;20049;-73
2022/03/08 08:00:11;;;;;;;14.77;8.32;;;11.80;99.90;;;;;;5055042;28;20045;-73
2022/03/08 08:02:37;;;;;;;12.05;8.02;;;11.90;99.90;;;;;;5048105;28;20040;-73
2022/03/08 08:05:04;;;;;;;13.23;8.32;;;11.90;99.90;;;;;;5051606;28;20036;-73
2022/03/08 08:07:32;;;;;;;13.30;7.90;;;11.90;99.90;;;;;;5057579;28;20119;-73
2022/03/08 08:09:58;;;;;;;13.57;7.85;;;11.90;99.90;;;;;;5057091;28;20041;-74
2022/03/08 08:12:24;;;;;;;10.88;6.78;;;11.90;99.90;;;;;;5072007;28;20063;-73
2022/03/08 08:14:51;;;;;;;13.23;7.95;;;11.80;99.90;;;;;;5048323;28;20855;-75
2022/03/08 08:17:19;;;;;;;13.73;8.45;;;11.90;99.90;;;;;;5045358;28;20041;-75
2022/03/08 08:19:46;;;;;;;18.27;8.57;;;12.00;99.90;;;;;;5052149;28;20749;-75
2022/03/08 08:22:12;;;;;;;15.50;7.53;;;12.00;99.90;;;;;;5049781;28;20400;-75
2022/03/08 08:24:38;;;;;;;12.70;7.63;;;11.90;99.90;;;;;;5049651;28;20052;-74
2022/03/08 08:27:04;;;;;;;13.40;7.75;;;11.90;99.90;;;;;;5036727;28;20036;-78
2022/03/08 08:29:30;;;;;;;13.63;7.57;;;11.90;99.90;;;;;;5054683;28;20119;-76
2022/03/08 08:31:57;;;;;;;15.40;8.77;;;12.00;99.90;;;;;;5041923;28;20166;-75
2022/03/08 08:34:26;;;;;;;13.55;7.80;;;12.20;99.90;;;;;;5066426;28;20495;-75
2022/03/08 08:36:52;;;;;;;15.95;7.47;;;12.20;99.90;;;;;;5053153;28;20070;-74
2022/03/08 08:39:19;;;;;;;12.73;7.35;;;12.10;99.90;;;;;;5044552;28;20079;-75
2022/03/08 08:41:46;;;;;;;11.35;6.90;;;11.90;99.90;;;;;;5037323;28;20041;-75
2022/03/08 08:44:13;;;;;;;12.23;6.93;;;12.10;99.90;;;;;;5061164;28;20045;-75
2022/03/08 08:46:39;;;;;;;12.02;7.05;;;12.10;99.90;;;;;;5045001;28;20040;-73
2022/03/08 08:49:06;;;;;;;12.10;6.82;;;12.10;99.90;;;;;;5044406;28;20559;-74
2022/03/08 08:51:32;;;;;;;10.25;6.70;;;12.20;99.90;;;;;;5062782;28;20067;-74
2022/03/08 08:54:00;;;;;;;12.48;7.50;;;12.10;99.90;;;;;;5031447;28;20430;-75
2022/03/08 08:56:27;;;;;;;14.68;7.22;;;12.00;99.90;;;;;;5051430;28;20078;-74
2022/03/08 08:58:52;;;;;;;10.32;6.45;;;11.90;99.90;;;;;;5047531;28;20048;-75
2022/03/08 09:01:19;;;;;;;12.07;7.25;;;11.90;99.90;;;;;;5062381;28;20037;-74
2022/03/08 09:03:44;;;;;;;11.45;6.85;;;11.80;99.90;;;;;;5046879;28;20047;-74
2022/03/08 09:06:11;;;;;;;12.07;7.55;;;11.80;99.90;;;;;;5045349;28;20534;-74
2022/03/08 09:08:37;;;;;;;22.15;8.32;;;11.70;99.90;;;;;;5046099;28;20037;-74
2022/03/08 09:11:05;;;;;;;15.57;8.35;;;11.80;99.90;;;;;;5031690;28;20072;-74
2022/03/08 09:13:31;;;;;;;16.05;8.10;;;11.70;99.90;;;;;;5069728;28;20371;-74
2022/03/08 09:15:57;;;;;;;13.35;8.35;;;11.80;99.90;;;;;;5067713;28;20259;-73
2022/03/08 09:18:23;;;;;;;10.80;7.72;;;11.90;99.90;;;;;;5039558;28;20403;-73
2022/03/08 09:20:50;;;;;;;15.70;8.75;;;11.90;99.90;;;;;;5046089;28;20376;-73
2022/03/08 09:23:16;;;;;;;10.65;7.68;;;12.00;99.90;;;;;;5047000;28;20492;-74
2022/03/08 09:25:42;;;;;;;11.40;7.30;;;11.90;99.90;;;;;;5039786;28;20159;-74
2022/03/08 09:28:08;;;;;;;13.15;8.43;;;12.00;99.90;;;;;;5040821;28;20118;-74
2022/03/08 09:30:37;;;;;;;11.55;7.38;;;12.20;99.90;;;;;;5030077;28;20036;-74
2022/03/08 09:33:04;;;;;;;15.93;8.18;;;12.20;99.90;;;;;;5039834;28;20051;-72
2022/03/08 09:35:31;;;;;;;15.80;8.48;;;12.30;99.90;;;;;;5050284;28;20131;-74
2022/03/08 09:37:57;;;;;;;17.70;7.65;;;12.40;99.90;;;;;;5053289;28;20048;-74
2022/03/08 09:40:24;;;;;;;10.75;7.53;;;12.20;99.90;;;;;;5044848;28;20491;-74
2022/03/08 09:42:51;;;;;;;14.68;8.38;;;12.00;99.90;;;;;;5062323;28;20036;-74
2022/03/08 09:45:18;;;;;;;13.25;8.13;;;11.90;99.90;;;;;;5045925;28;20063;-73
2022/03/08 09:47:45;;;;;;;13.57;9.25;;;11.90;99.90;;;;;;5054309;28;20036;-75
2022/03/08 09:50:13;;;;;;;17.95;9.07;;;12.00;99.90;;;;;;5069002;28;20101;-74
2022/03/08 09:52:41;;;;;;;14.05;9.02;;;12.00;99.90;;;;;;5056064;28;20529;-73
2022/03/08 09:55:11;;;;;;;14.73;7.68;;;12.10;99.90;;;;;;5047600;28;20037;-74
2022/03/08 09:57:37;;;;;;;14.23;8.35;;;12.10;99.90;;;;;;5038319;28;20044;-73
2022/03/08 10:00:06;;;;;;;17.45;8.93;;;11.90;99.90;;;;;;5018756;28;20041;-73
2022/03/08 10:02:55;;;;;;;15.10;8.75;;;11.90;99.90;;;;;;5026795;28;20488;-73
2022/03/08 10:05:23;;;;;;;14.68;8.38;;;11.80;99.90;;;;;;5064003;28;20155;-76
2022/03/08 10:08:08;;;;;;;13.93;9.10;;;11.80;99.90;;;;;;5043282;28;20059;-73
2022/03/08 10:11:00;;;;;;;17.20;9.10;;;11.70;99.90;;;;;;5030216;28;20040;-77
2022/03/08 10:13:31;;;;;;;12.75;9.48;;;11.80;99.90;;;;;;5043438;28;20043;-74
2022/03/08 10:16:04;;;;;;;20.20;10.57;;;11.90;99.90;;;;;;5066761;28;20040;-75
2022/03/08 10:18:46;;;;;;;19.02;8.73;;;11.70;99.90;;;;;;5051694;28;20041;-73
2022/03/08 10:21:28;;;;;;;15.25;9.13;;;11.40;99.90;;;;;;5064239;28;20123;-74
2022/03/08 10:23:55;;;;;;;14.70;10.13;;;10.90;99.90;;;;;;5050098;28;20036;-73
2022/03/08 10:26:23;;;;;;;20.75;9.88;;;10.70;99.90;;;;;;5053949;28;20036;-74
2022/03/08 10:28:51;;;;;;;17.25;10.57;;;10.50;99.90;;;;;;5031955;28;20041;-73
2022/03/08 10:31:18;;;;;;;17.00;10.82;;;10.40;99.90;;;;;;5047682;28;20048;-72
2022/03/08 10:33:46;;;;;;;15.75;10.57;;;10.30;99.90;;;;;;5052405;28;20040;-73
2022/03/08 10:36:17;;;;;;;17.52;10.82;;;10.40;99.90;;;;;;5054899;28;20070;-73
2022/03/08 10:39:04;;;;;;;20.25;11.70;;;10.50;99.90;;;;;;5033687;28;20441;-73
2022/03/08 10:41:29;;;;;;;24.60;12.55;;;10.70;99.90;;;;;;5069873;28;20033;-72
2022/03/08 10:43:57;;;;;;;20.60;10.45;;;10.70;99.90;;;;;;5051122;28;20541;-73
2022/03/08 10:46:25;;;;;;;16.88;11.10;;;10.80;99.90;;;;;;5051623;28;20041;-72
2022/03/08 10:48:54;;;;;;;17.50;10.10;;;10.90;99.90;;;;;;5053563;28;20062;-74
2022/03/08 10:51:22;;;;;;;14.30;9.40;;;10.80;99.90;;;;;;5062591;28;20116;-73
2022/03/08 10:53:49;;;;;;;14.65;9.68;;;10.90;99.90;;;;;;5053901;28;20994;-74
2022/03/08 10:56:23;;;;;;;14.48;9.15;;;10.90;99.90;;;;;;5069029;28;20044;-73
2022/03/08 10:58:52;;;;;;;19.50;8.90;;;10.90;99.90;;;;;;5067486;28;20024;-75
2022/03/08 11:01:19;;;;;;;25.92;11.15;;;11.00;99.90;;;;;;5064785;28;20032;-73
2022/03/08 11:03:56;;;;;;;25.27;10.55;;;11.20;99.90;;;;;;5058659;28;20072;-75
2022/03/08 11:06:25;;;;;;;18.15;10.15;;;11.20;99.90;;;;;;5051151;28;20548;-74
2022/03/08 11:08:52;;;;;;;20.23;9.52;;;11.10;99.90;;;;;;5050236;28;20043;-74
2022/03/08 11:11:20;;;;;;;15.05;8.80;;;11.00;99.90;;;;;;5040147;28;20074;-74
2022/03/08 11:13:54;;;;;;;14.85;9.23;;;11.00;99.90;;;;;;5037232;28;20043;-73
2022/03/08 11:16:22;;;;;;;15.65;8.82;;;10.80;99.90;;;;;;5034692;28;20049;-74
2022/03/08 11:18:50;;;;;;;21.05;9.88;;;10.80;99.90;;;;;;5039033;28;20041;-73
2022/03/08 11:21:17;;;;;;;20.17;10.77;;;10.90;99.90;;;;;;5040703;28;20179;-75
2022/03/08 11:23:44;;;;;;;21.70;10.00;;;11.10;99.90;;;;;;5050159;28;20514;-74
2022/03/08 11:26:15;;;;;;;16.10;9.57;;;11.00;99.90;;;;;;5070480;28;20044;-74
2022/03/08 11:28:45;;;;;;;15.07;8.77;;;11.00;99.90;;;;;;5042590;28;20040;-73
2022/03/08 11:31:12;;;;;;;14.63;10.32;;;10.90;99.90;;;;;;5036081;28;20120;-74
2022/03/08 11:33:58;;;;;;;15.45;9.27;;;11.00;99.90;;;;;;5053050;28;20041;-74
2022/03/08 11:36:36;;;;;;;18.17;10.27;;;11.10;99.90;;;;;;5054004;28;20055;-76
2022/03/08 11:39:22;;;;;;;13.65;9.48;;;11.00;99.90;;;;;;5055103;28;20041;-74
2022/03/08 11:42:20;;;;;;;16.33;9.35;;;11.20;99.90;;;;;;5043347;28;20047;-73
2022/03/08 11:45:00;;;;;;;14.13;9.55;;;11.10;99.90;;;;;;5044530;28;20127;-74
2022/03/08 11:47:38;;;;;;;14.20;9.20;;;11.20;99.90;;;;;;5047211;28;20036;-74
2022/03/08 11:50:05;;;;;;;17.92;9.98;;;11.20;99.90;;;;;;5045812;28;21307;-73
2022/03/08 11:52:37;;;;;;;15.88;9.75;;;11.20;99.90;;;;;;5035868;28;20041;-75
2022/03/08 11:55:09;;;;;;;16.20;10.18;;;11.10;99.90;;;;;;5031401;28;20045;-74
2022/03/08 11:57:49;;;;;;;14.55;9.68;;;11.10;99.90;;;;;;5049993;28;20036;-74
2022/03/08 12:00:15;;;;;;;14.13;9.40;;;11.20;99.90;;;;;;5050509;28;20457;-75
2022/03/08 12:02:46;;;;;;;14.45;9.13;;;11.20;99.90;;;;;;5053682;28;20134;-75
2022/03/08 12:05:49;;;;;;;15.13;9.80;;;11.40;99.90;;;;;;5067422;28;20128;-74
2022/03/08 12:08:39;;;;;;;17.38;8.77;;;11.60;99.90;;;;;;5054886;28;20068;-76
2022/03/08 12:11:13;;;;;;;14.13;9.40;;;11.80;99.90;;;;;;5058800;28;20040;-74
2022/03/08 12:13:42;;;;;;;10.85;8.48;;;11.60;99.90;;;;;;5054475;28;20495;-74
2022/03/08 12:16:09;;;;;;;12.40;9.30;;;11.60;99.90;;;;;;5065495;28;20036;-74
2022/03/08 12:18:50;;;;;;;14.77;9.15;;;11.50;99.90;;;;;;5033844;28;20037;-74
2022/03/08 12:21:21;;;;;;;13.07;8.63;;;11.50;99.90;;;;;;5015845;28;20074;-73
2022/03/08 12:24:05;;;;;;;15.48;9.40;;;11.40;99.90;;;;;;5051047;28;20036;-74
2022/03/08 12:26:36;;;;;;;16.73;9.70;;;11.40;99.90;;;;;;5039391;28;20102;-75
2022/03/08 12:29:42;;;;;;;15.38;9.18;;;11.20;99.90;;;;;;5048760;28;20464;-75
2022/03/08 12:32:10;;;;;;;17.42;9.55;;;11.20;99.90;;;;;;5038217;28;20033;-74
2022/03/08 12:34:45;;;;;;;15.00;10.77;;;11.20;99.90;;;;;;5049975;28;20093;-73
2022/03/08 12:37:13;;;;;;;21.15;10.32;;;11.30;99.90;;;;;;5037307;28;20720;-74
2022/03/08 12:39:47;;;;;;;12.73;8.82;;;11.40;99.90;;;;;;5059036;28;20044;-75
2022/03/08 12:42:40;;;;;;;14.02;8.57;;;11.40;99.90;;;;;;5046685;28;20071;-75
2022/03/08 12:45:42;;;;;;;16.05;8.45;;;11.40;99.90;;;;;;5045838;28;20056;-75
2022/03/08 12:48:20;;;;;;;15.00;8.90;;;11.20;99.90;;;;;;5065775;28;20066;-76